No particular awareness of the weather is required.    There are no Weather-warnings


Meteo18 Weather Cam more information Meteo18 Weather Cam


Thunder radar more information blitzortung!


Rain radar more information rain snow radar


Visit our other weather sites:

Template documentation
and downloads

And another site



Weather Underground History page Text

Daily Summary for January 20, 2017 Units:  Both    English   Metric
« Previous Day
Next Day »
Daily Weekly Monthly Yearly Custom
  High: Low: Average:
Temperature: 35.6 °F /  2.0 °C 17.4 °F /  -8.1 °C 24.8 °F /  -4 °C
Dew Point: 27.5 °F /  -2.5 °C 15.4 °F /  -9.2 °C 21.4 °F /  -5.9 °C
Humidity: 93 % 71 % 86 %
Wind Speed: 4 mph /  6.4 km/h - 0.6 mph /  0.9 km/h
Wind Gust: 7 mph /  11.3 km/h - -
Wind:- - East
Pressure: 30.4 in /  1030.7 hPa 30.4 in /  1028.0 hPa -
Precipitation: 0 in /  0.0 mm    
Historical Graphs
 
 
Tabular Data for January 20, 2017
Time Temperature Dew Point Pressure Wind Wind Speed Wind Gust Humidity Rainfall Rate (Hourly)
00:02 22.3 °F /  -5.4 °C 19.2 °F /  -7.1 °C 30.4 in /  1030.7 hPa Calm   1 mph /  1.6 km/h 88 % 0 in /  0.0 mm
00:07 22.3 °F /  -5.4 °C 19.2 °F /  -7.1 °C 30.4 in /  1030.7 hPa Calm     88 % 0 in /  0.0 mm
00:12 22.3 °F /  -5.4 °C 19.2 °F /  -7.1 °C 30.4 in /  1030.7 hPa Calm   1 mph /  1.6 km/h 88 % 0 in /  0.0 mm
00:17 22.1 °F /  -5.5 °C 19 °F /  -7.2 °C 30.4 in /  1030.7 hPa Calm   1 mph /  1.6 km/h 88 % 0 in /  0.0 mm
00:22 22.1 °F /  -5.5 °C 19.4 °F /  -7.0 °C 30.4 in /  1030.4 hPa Calm   1 mph /  1.6 km/h 89 % 0 in /  0.0 mm
00:27 21.9 °F /  -5.6 °C 19.2 °F /  -7.1 °C 30.4 in /  1030.4 hPa Calm   1 mph /  1.6 km/h 89 % 0 in /  0.0 mm
00:32 21.9 °F /  -5.6 °C 19.2 °F /  -7.1 °C 30.4 in /  1030.4 hPa Calm   1 mph /  1.6 km/h 89 % 0 in /  0.0 mm
00:37 21.9 °F /  -5.6 °C 19.2 °F /  -7.1 °C 30.4 in /  1030.4 hPa Calm   1 mph /  1.6 km/h 89 % 0 in /  0.0 mm
00:42 21.9 °F /  -5.6 °C 18.9 °F /  -7.3 °C 30.4 in /  1030.4 hPa Calm   1 mph /  1.6 km/h 88 % 0 in /  0.0 mm
00:47 21.9 °F /  -5.6 °C 19.2 °F /  -7.1 °C 30.4 in /  1030.4 hPa Calm   1 mph /  1.6 km/h 89 % 0 in /  0.0 mm
00:52 21.7 °F /  -5.7 °C 19 °F /  -7.2 °C 30.4 in /  1030.4 hPa Calm   1 mph /  1.6 km/h 89 % 0 in /  0.0 mm
00:57 21.7 °F /  -5.7 °C 19 °F /  -7.2 °C 30.4 in /  1030.4 hPa Calm   1 mph /  1.6 km/h 89 % 0 in /  0.0 mm
01:02 21.7 °F /  -5.7 °C 19 °F /  -7.2 °C 30.4 in /  1030.4 hPa Calm   1 mph /  1.6 km/h 89 % 0 in /  0.0 mm
01:07 21.7 °F /  -5.7 °C 18.7 °F /  -7.4 °C 30.4 in /  1030.4 hPa Calm   1 mph /  1.6 km/h 88 % 0 in /  0.0 mm
01:12 21.6 °F /  -5.8 °C 18.9 °F /  -7.3 °C 30.4 in /  1030.0 hPa WNW 1 mph /  1.6 km/h 1 mph /  1.6 km/h 89 % 0 in /  0.0 mm
01:17 21.7 °F /  -5.7 °C 19.2 °F /  -7.1 °C 30.4 in /  1030.0 hPa Calm   1 mph /  1.6 km/h 90 % 0 in /  0.0 mm
01:22 21.7 °F /  -5.7 °C 19 °F /  -7.2 °C 30.4 in /  1030.0 hPa NNW 1 mph /  1.6 km/h 1 mph /  1.6 km/h 89 % 0 in /  0.0 mm
01:27 21.7 °F /  -5.7 °C 19 °F /  -7.2 °C 30.4 in /  1030.0 hPa Calm   1 mph /  1.6 km/h 89 % 0 in /  0.0 mm
01:32 21.6 °F /  -5.8 °C 18.9 °F /  -7.3 °C 30.4 in /  1030.0 hPa Calm   1 mph /  1.6 km/h 89 % 0 in /  0.0 mm
01:37 21.6 °F /  -5.8 °C 18.9 °F /  -7.3 °C 30.4 in /  1030.0 hPa Calm   1 mph /  1.6 km/h 89 % 0 in /  0.0 mm
01:42 21.6 °F /  -5.8 °C 18.9 °F /  -7.3 °C 30.4 in /  1030.0 hPa Calm   1 mph /  1.6 km/h 89 % 0 in /  0.0 mm
01:47 21.7 °F /  -5.7 °C 19 °F /  -7.2 °C 30.4 in /  1030.0 hPa Calm   1 mph /  1.6 km/h 89 % 0 in /  0.0 mm
01:52 21.7 °F /  -5.7 °C 19 °F /  -7.2 °C 30.4 in /  1030.0 hPa NNW 1 mph /  1.6 km/h 1 mph /  1.6 km/h 89 % 0 in /  0.0 mm
01:57 21.7 °F /  -5.7 °C 19 °F /  -7.2 °C 30.4 in /  1030.0 hPa Calm   1 mph /  1.6 km/h 89 % 0 in /  0.0 mm
02:02 21.6 °F /  -5.8 °C 18.9 °F /  -7.3 °C 30.4 in /  1030.0 hPa Calm   1 mph /  1.6 km/h 89 % 0 in /  0.0 mm
02:07 21.6 °F /  -5.8 °C 18.9 °F /  -7.3 °C 30.4 in /  1030.0 hPa Calm   1 mph /  1.6 km/h 89 % 0 in /  0.0 mm
02:12 21.4 °F /  -5.9 °C 18.7 °F /  -7.4 °C 30.4 in /  1030.0 hPa North 1 mph /  1.6 km/h 2 mph /  3.2 km/h 89 % 0 in /  0.0 mm
02:17 21.4 °F /  -5.9 °C 18.7 °F /  -7.4 °C 30.4 in /  1029.7 hPa Calm   2 mph /  3.2 km/h 89 % 0 in /  0.0 mm
02:22 21.4 °F /  -5.9 °C 18.7 °F /  -7.4 °C 30.4 in /  1029.7 hPa NNW 1 mph /  1.6 km/h 2 mph /  3.2 km/h 89 % 0 in /  0.0 mm
02:27 21.4 °F /  -5.9 °C 18.7 °F /  -7.4 °C 30.4 in /  1029.7 hPa North 1 mph /  1.6 km/h 2 mph /  3.2 km/h 89 % 0 in /  0.0 mm
02:32 21.4 °F /  -5.9 °C 18.7 °F /  -7.4 °C 30.4 in /  1029.7 hPa NNW 1 mph /  1.6 km/h 2 mph /  3.2 km/h 89 % 0 in /  0.0 mm
02:37 21.4 °F /  -5.9 °C 18.7 °F /  -7.4 °C 30.4 in /  1029.7 hPa North 1 mph /  1.6 km/h 2 mph /  3.2 km/h 89 % 0 in /  0.0 mm
02:42 21 °F /  -6.1 °C 18.3 °F /  -7.6 °C 30.4 in /  1030.0 hPa Calm   2 mph /  3.2 km/h 89 % 0 in /  0.0 mm
02:52 20.5 °F /  -6.4 °C 17.8 °F /  -7.9 °C 30.4 in /  1029.7 hPa Calm   2 mph /  3.2 km/h 89 % 0 in /  0.0 mm
02:57 20.1 °F /  -6.6 °C 17.4 °F /  -8.1 °C 30.4 in /  1030.0 hPa Calm   1 mph /  1.6 km/h 89 % 0 in /  0.0 mm
03:02 20.1 °F /  -6.6 °C 17.6 °F /  -8.0 °C 30.4 in /  1030.0 hPa Calm   1 mph /  1.6 km/h 90 % 0 in /  0.0 mm
03:07 19.9 °F /  -6.7 °C 17.4 °F /  -8.1 °C 30.4 in /  1030.0 hPa Calm     90 % 0 in /  0.0 mm
03:12 19.9 °F /  -6.7 °C 17.4 °F /  -8.1 °C 30.4 in /  1030.0 hPa Calm     90 % 0 in /  0.0 mm
03:17 19.8 °F /  -6.8 °C 17.6 °F /  -8.0 °C 30.4 in /  1030.0 hPa Calm     91 % 0 in /  0.0 mm
03:22 19.8 °F /  -6.8 °C 17.6 °F /  -8.0 °C 30.4 in /  1030.0 hPa Calm     91 % 0 in /  0.0 mm
03:27 19.8 °F /  -6.8 °C 17.6 °F /  -8.0 °C 30.4 in /  1030.0 hPa Calm     91 % 0 in /  0.0 mm
03:32 19.8 °F /  -6.8 °C 17.6 °F /  -8.0 °C 30.4 in /  1029.7 hPa Calm     91 % 0 in /  0.0 mm
03:37 19.6 °F /  -6.9 °C 17.4 °F /  -8.1 °C 30.4 in /  1029.7 hPa Calm     91 % 0 in /  0.0 mm
03:42 19.6 °F /  -6.9 °C 17.4 °F /  -8.1 °C 30.4 in /  1029.7 hPa Calm     91 % 0 in /  0.0 mm
03:47 19.6 °F /  -6.9 °C 17.4 °F /  -8.1 °C 30.4 in /  1029.7 hPa Calm     91 % 0 in /  0.0 mm
03:52 19.4 °F /  -7.0 °C 17.2 °F /  -8.2 °C 30.4 in /  1029.7 hPa Calm     91 % 0 in /  0.0 mm
03:57 19.2 °F /  -7.1 °C 17.1 °F /  -8.3 °C 30.4 in /  1029.7 hPa Calm   1 mph /  1.6 km/h 91 % 0 in /  0.0 mm
04:02 19.2 °F /  -7.1 °C 17.1 °F /  -8.3 °C 30.4 in /  1029.7 hPa Calm   1 mph /  1.6 km/h 91 % 0 in /  0.0 mm
04:12 19.6 °F /  -6.9 °C 17.4 °F /  -8.1 °C 30.4 in /  1029.3 hPa Calm   2 mph /  3.2 km/h 91 % 0 in /  0.0 mm
04:17 19.8 °F /  -6.8 °C 17.6 °F /  -8.0 °C 30.4 in /  1029.3 hPa Calm   2 mph /  3.2 km/h 91 % 0 in /  0.0 mm
04:22 19.6 °F /  -6.9 °C 17.4 °F /  -8.1 °C 30.4 in /  1029.3 hPa Calm   2 mph /  3.2 km/h 91 % 0 in /  0.0 mm
04:27 19.2 °F /  -7.1 °C 16.7 °F /  -8.5 °C 30.4 in /  1029.3 hPa Calm   1 mph /  1.6 km/h 90 % 0 in /  0.0 mm
04:32 19 °F /  -7.2 °C 16.9 °F /  -8.4 °C 30.4 in /  1029.3 hPa Calm   1 mph /  1.6 km/h 91 % 0 in /  0.0 mm
04:37 19.2 °F /  -7.1 °C 17.1 °F /  -8.3 °C 30.4 in /  1029.3 hPa Calm   1 mph /  1.6 km/h 91 % 0 in /  0.0 mm
04:42 19.2 °F /  -7.1 °C 17.1 °F /  -8.3 °C 30.4 in /  1029.3 hPa Calm   1 mph /  1.6 km/h 91 % 0 in /  0.0 mm
04:47 19.4 °F /  -7.0 °C 17.2 °F /  -8.2 °C 30.4 in /  1029.3 hPa Calm   1 mph /  1.6 km/h 91 % 0 in /  0.0 mm
04:52 19 °F /  -7.2 °C 16.9 °F /  -8.4 °C 30.4 in /  1029.3 hPa Calm   1 mph /  1.6 km/h 91 % 0 in /  0.0 mm
04:57 18.9 °F /  -7.3 °C 16.7 °F /  -8.5 °C 30.4 in /  1029.3 hPa Calm   1 mph /  1.6 km/h 91 % 0 in /  0.0 mm
05:02 18.9 °F /  -7.3 °C 16.7 °F /  -8.5 °C 30.4 in /  1029.3 hPa Calm   1 mph /  1.6 km/h 91 % 0 in /  0.0 mm
05:07 19 °F /  -7.2 °C 17.1 °F /  -8.3 °C 30.4 in /  1029.3 hPa Calm   1 mph /  1.6 km/h 92 % 0 in /  0.0 mm
05:12 19 °F /  -7.2 °C 16.9 °F /  -8.4 °C 30.4 in /  1029.3 hPa Calm   1 mph /  1.6 km/h 91 % 0 in /  0.0 mm
05:17 18.9 °F /  -7.3 °C 16.7 °F /  -8.5 °C 30.4 in /  1029.3 hPa Calm   1 mph /  1.6 km/h 91 % 0 in /  0.0 mm
05:22 18.9 °F /  -7.3 °C 16.9 °F /  -8.4 °C 30.4 in /  1029.3 hPa Calm   1 mph /  1.6 km/h 92 % 0 in /  0.0 mm
05:32 18.9 °F /  -7.3 °C 16.9 °F /  -8.4 °C 30.4 in /  1029.3 hPa Calm     92 % 0 in /  0.0 mm
05:37 18.9 °F /  -7.3 °C 16.7 °F /  -8.5 °C 30.4 in /  1029.3 hPa Calm     91 % 0 in /  0.0 mm
05:42 18.9 °F /  -7.3 °C 16.7 °F /  -8.5 °C 30.4 in /  1029.3 hPa Calm     91 % 0 in /  0.0 mm
05:47 18.9 °F /  -7.3 °C 16.9 °F /  -8.4 °C 30.4 in /  1029.3 hPa Calm     92 % 0 in /  0.0 mm
05:52 19.2 °F /  -7.1 °C 17.2 °F /  -8.2 °C 30.4 in /  1029.3 hPa Calm     92 % 0 in /  0.0 mm
05:57 19 °F /  -7.2 °C 16.9 °F /  -8.4 °C 30.4 in /  1029.3 hPa Calm   1 mph /  1.6 km/h 91 % 0 in /  0.0 mm
06:02 18.9 °F /  -7.3 °C 16.7 °F /  -8.5 °C 30.4 in /  1029.3 hPa Calm   1 mph /  1.6 km/h 91 % 0 in /  0.0 mm
06:12 18.7 °F /  -7.4 °C 16.7 °F /  -8.5 °C 30.4 in /  1029.3 hPa Calm   1 mph /  1.6 km/h 92 % 0 in /  0.0 mm
06:17 18.1 °F /  -7.7 °C 16 °F /  -8.9 °C 30.4 in /  1029.0 hPa Calm   1 mph /  1.6 km/h 91 % 0 in /  0.0 mm
06:22 18 °F /  -7.8 °C 15.8 °F /  -9.0 °C 30.4 in /  1029.3 hPa Calm   1 mph /  1.6 km/h 91 % 0 in /  0.0 mm
06:27 18 °F /  -7.8 °C 16 °F /  -8.9 °C 30.4 in /  1029.3 hPa NE 1 mph /  1.6 km/h 1 mph /  1.6 km/h 92 % 0 in /  0.0 mm
06:32 18.3 °F /  -7.6 °C 16.3 °F /  -8.7 °C 30.4 in /  1029.3 hPa Calm   1 mph /  1.6 km/h 92 % 0 in /  0.0 mm
06:42 18.1 °F /  -7.7 °C 16.2 °F /  -8.8 °C 30.4 in /  1029.3 hPa NNE 1 mph /  1.6 km/h 2 mph /  3.2 km/h 92 % 0 in /  0.0 mm
06:47 18.1 °F /  -7.7 °C 16.2 °F /  -8.8 °C 30.4 in /  1029.3 hPa NE 1 mph /  1.6 km/h 3 mph /  4.8 km/h 92 % 0 in /  0.0 mm
06:52 18.5 °F /  -7.5 °C 16.5 °F /  -8.6 °C 30.4 in /  1029.3 hPa Calm   3 mph /  4.8 km/h 92 % 0 in /  0.0 mm
06:57 18.3 °F /  -7.6 °C 16.3 °F /  -8.7 °C 30.4 in /  1029.0 hPa NNE 2 mph /  3.2 km/h 3 mph /  4.8 km/h 92 % 0 in /  0.0 mm
07:02 18.5 °F /  -7.5 °C 16.5 °F /  -8.6 °C 30.4 in /  1029.3 hPa NNE 2 mph /  3.2 km/h 3 mph /  4.8 km/h 92 % 0 in /  0.0 mm
07:12 19 °F /  -7.2 °C 17.1 °F /  -8.3 °C 30.4 in /  1029.3 hPa NE 2 mph /  3.2 km/h 5 mph /  8.0 km/h 92 % 0 in /  0.0 mm
07:17 19.2 °F /  -7.1 °C 17.2 °F /  -8.2 °C 30.4 in /  1029.3 hPa NE 3 mph /  4.8 km/h 5 mph /  8.0 km/h 92 % 0 in /  0.0 mm
07:22 19.4 °F /  -7.0 °C 17.2 °F /  -8.2 °C 30.4 in /  1029.3 hPa Calm   5 mph /  8.0 km/h 91 % 0 in /  0.0 mm
07:32 19.2 °F /  -7.1 °C 17.1 °F /  -8.3 °C 30.4 in /  1029.3 hPa NE 1 mph /  1.6 km/h 5 mph /  8.0 km/h 91 % 0 in /  0.0 mm
07:37 19.2 °F /  -7.1 °C 17.1 °F /  -8.3 °C 30.4 in /  1029.3 hPa NNE 2 mph /  3.2 km/h 4 mph /  6.4 km/h 91 % 0 in /  0.0 mm
07:42 19 °F /  -7.2 °C 16.9 °F /  -8.4 °C 30.4 in /  1029.3 hPa Calm   4 mph /  6.4 km/h 91 % 0 in /  0.0 mm
07:47 18.7 °F /  -7.4 °C 16.5 °F /  -8.6 °C 30.4 in /  1029.3 hPa Calm   4 mph /  6.4 km/h 91 % 0 in /  0.0 mm
07:52 18.7 °F /  -7.4 °C 16.5 °F /  -8.6 °C 30.4 in /  1029.3 hPa Calm   4 mph /  6.4 km/h 91 % 0 in /  0.0 mm
07:57 18.5 °F /  -7.5 °C 16.3 °F /  -8.7 °C 30.4 in /  1029.3 hPa Calm   2 mph /  3.2 km/h 91 % 0 in /  0.0 mm
08:02 18.3 °F /  -7.6 °C 16.2 °F /  -8.8 °C 30.4 in /  1029.3 hPa Calm   2 mph /  3.2 km/h 91 % 0 in /  0.0 mm
08:07 18.1 °F /  -7.7 °C 16 °F /  -8.9 °C 30.4 in /  1029.3 hPa NNE 1 mph /  1.6 km/h 1 mph /  1.6 km/h 91 % 0 in /  0.0 mm
08:12 18.1 °F /  -7.7 °C 16 °F /  -8.9 °C 30.4 in /  1029.3 hPa NE 1 mph /  1.6 km/h 1 mph /  1.6 km/h 91 % 0 in /  0.0 mm
08:17 18.1 °F /  -7.7 °C 16.2 °F /  -8.8 °C 30.4 in /  1029.3 hPa Calm   2 mph /  3.2 km/h 92 % 0 in /  0.0 mm
08:22 18.1 °F /  -7.7 °C 16.2 °F /  -8.8 °C 30.4 in /  1029.3 hPa Calm   2 mph /  3.2 km/h 92 % 0 in /  0.0 mm
08:32 18.1 °F /  -7.7 °C 16.2 °F /  -8.8 °C 30.4 in /  1029.3 hPa Calm   2 mph /  3.2 km/h 92 % 0 in /  0.0 mm
08:37 18.1 °F /  -7.7 °C 16 °F /  -8.9 °C 30.4 in /  1029.3 hPa Calm   1 mph /  1.6 km/h 91 % 0 in /  0.0 mm
08:42 18 °F /  -7.8 °C 16 °F /  -8.9 °C 30.4 in /  1029.3 hPa Calm   1 mph /  1.6 km/h 92 % 0 in /  0.0 mm
08:47 17.8 °F /  -7.9 °C 15.6 °F /  -9.1 °C 30.4 in /  1029.3 hPa Calm   1 mph /  1.6 km/h 91 % 0 in /  0.0 mm
08:52 17.4 °F /  -8.1 °C 15.4 °F /  -9.2 °C 30.4 in /  1029.3 hPa Calm   1 mph /  1.6 km/h 92 % 0 in /  0.0 mm
08:57 17.6 °F /  -8.0 °C 15.6 °F /  -9.1 °C 30.4 in /  1029.3 hPa Calm     92 % 0 in /  0.0 mm
09:07 18 °F /  -7.8 °C 16 °F /  -8.9 °C 30.4 in /  1029.3 hPa Calm     92 % 0 in /  0.0 mm
09:12 18 °F /  -7.8 °C 16 °F /  -8.9 °C 30.4 in /  1029.3 hPa Calm     92 % 0 in /  0.0 mm
09:17 18.1 °F /  -7.7 °C 16.2 °F /  -8.8 °C 30.4 in /  1029.3 hPa Calm     92 % 0 in /  0.0 mm
09:22 18.3 °F /  -7.6 °C 16.3 °F /  -8.7 °C 30.4 in /  1029.7 hPa Calm     92 % 0 in /  0.0 mm
09:27 18.7 °F /  -7.4 °C 16.7 °F /  -8.5 °C 30.4 in /  1029.7 hPa Calm     92 % 0 in /  0.0 mm
09:32 18.9 °F /  -7.3 °C 16.9 °F /  -8.4 °C 30.4 in /  1029.7 hPa Calm     92 % 0 in /  0.0 mm
09:37 19.2 °F /  -7.1 °C 17.2 °F /  -8.2 °C 30.4 in /  1029.7 hPa Calm     92 % 0 in /  0.0 mm
09:42 19.6 °F /  -6.9 °C 17.4 °F /  -8.1 °C 30.4 in /  1029.7 hPa Calm     91 % 0 in /  0.0 mm
09:47 19.9 °F /  -6.7 °C 17.8 °F /  -7.9 °C 30.4 in /  1029.7 hPa Calm   1 mph /  1.6 km/h 91 % 0 in /  0.0 mm
09:52 20.1 °F /  -6.6 °C 18 °F /  -7.8 °C 30.4 in /  1029.7 hPa Calm   1 mph /  1.6 km/h 91 % 0 in /  0.0 mm
09:57 20.3 °F /  -6.5 °C 18.1 °F /  -7.7 °C 30.4 in /  1029.7 hPa NE 1 mph /  1.6 km/h 1 mph /  1.6 km/h 91 % 0 in /  0.0 mm
10:02 20.5 °F /  -6.4 °C 18 °F /  -7.8 °C 30.4 in /  1029.7 hPa Calm   1 mph /  1.6 km/h 90 % 0 in /  0.0 mm
10:07 20.8 °F /  -6.2 °C 18.3 °F /  -7.6 °C 30.4 in /  1029.7 hPa NNW 1 mph /  1.6 km/h 2 mph /  3.2 km/h 90 % 0 in /  0.0 mm
10:12 21 °F /  -6.1 °C 18.5 °F /  -7.5 °C 30.4 in /  1029.7 hPa Calm   2 mph /  3.2 km/h 90 % 0 in /  0.0 mm
10:17 21.4 °F /  -5.9 °C 18.7 °F /  -7.4 °C 30.4 in /  1029.7 hPa NNE 1 mph /  1.6 km/h 2 mph /  3.2 km/h 89 % 0 in /  0.0 mm
10:22 21.7 °F /  -5.7 °C 19.2 °F /  -7.1 °C 30.4 in /  1029.7 hPa NE 1 mph /  1.6 km/h 2 mph /  3.2 km/h 90 % 0 in /  0.0 mm
10:27 21.9 °F /  -5.6 °C 18.9 °F /  -7.3 °C 30.4 in /  1029.3 hPa Calm   2 mph /  3.2 km/h 88 % 0 in /  0.0 mm
10:32 22.3 °F /  -5.4 °C 19.2 °F /  -7.1 °C 30.4 in /  1029.7 hPa NE 1 mph /  1.6 km/h 2 mph /  3.2 km/h 88 % 0 in /  0.0 mm
10:37 22.5 °F /  -5.3 °C 19.4 °F /  -7.0 °C 30.4 in /  1029.7 hPa Calm   3 mph /  4.8 km/h 88 % 0 in /  0.0 mm
10:42 22.6 °F /  -5.2 °C 19.4 °F /  -7.0 °C 30.4 in /  1029.7 hPa Calm   3 mph /  4.8 km/h 87 % 0 in /  0.0 mm
10:47 22.8 °F /  -5.1 °C 19.8 °F /  -6.8 °C 30.4 in /  1029.7 hPa Calm   2 mph /  3.2 km/h 88 % 0 in /  0.0 mm
10:52 23.2 °F /  -4.9 °C 20.1 °F /  -6.6 °C 30.4 in /  1029.7 hPa Calm   2 mph /  3.2 km/h 88 % 0 in /  0.0 mm
10:57 23.5 °F /  -4.7 °C 20.3 °F /  -6.5 °C 30.4 in /  1029.7 hPa SE 1 mph /  1.6 km/h 2 mph /  3.2 km/h 87 % 0 in /  0.0 mm
11:02 24.1 °F /  -4.4 °C 20.8 °F /  -6.2 °C 30.4 in /  1029.7 hPa Calm   2 mph /  3.2 km/h 87 % 0 in /  0.0 mm
11:07 24.3 °F /  -4.3 °C 21 °F /  -6.1 °C 30.4 in /  1029.7 hPa Calm   2 mph /  3.2 km/h 87 % 0 in /  0.0 mm
11:12 24.6 °F /  -4.1 °C 21 °F /  -6.1 °C 30.4 in /  1029.7 hPa Calm   2 mph /  3.2 km/h 86 % 0 in /  0.0 mm
11:17 25.2 °F /  -3.8 °C 21.6 °F /  -5.8 °C 30.4 in /  1029.7 hPa Calm   2 mph /  3.2 km/h 86 % 0 in /  0.0 mm
11:22 25.7 °F /  -3.5 °C 21.6 °F /  -5.8 °C 30.4 in /  1029.7 hPa Calm   3 mph /  4.8 km/h 84 % 0 in /  0.0 mm
11:27 25.9 °F /  -3.4 °C 21.4 °F /  -5.9 °C 30.4 in /  1029.7 hPa ESE 4 mph /  6.4 km/h 4 mph /  6.4 km/h 83 % 0 in /  0.0 mm
11:32 25.9 °F /  -3.4 °C 21.2 °F /  -6.0 °C 30.4 in /  1029.7 hPa Calm   3 mph /  4.8 km/h 82 % 0 in /  0.0 mm
11:37 26.2 °F /  -3.2 °C 22.1 °F /  -5.5 °C 30.4 in /  1029.7 hPa SE 1 mph /  1.6 km/h 5 mph /  8.0 km/h 84 % 0 in /  0.0 mm
11:42 26.2 °F /  -3.2 °C 21.6 °F /  -5.8 °C 30.4 in /  1029.7 hPa ESE 3 mph /  4.8 km/h 5 mph /  8.0 km/h 82 % 0 in /  0.0 mm
11:47 26.2 °F /  -3.2 °C 21.7 °F /  -5.7 °C 30.4 in /  1029.3 hPa ESE 1 mph /  1.6 km/h 4 mph /  6.4 km/h 83 % 0 in /  0.0 mm
11:52 26.6 °F /  -3.0 °C 22.1 °F /  -5.5 °C 30.4 in /  1029.3 hPa Calm   4 mph /  6.4 km/h 83 % 0 in /  0.0 mm
11:57 26.8 °F /  -2.9 °C 22.3 °F /  -5.4 °C 30.4 in /  1029.3 hPa SE 1 mph /  1.6 km/h 4 mph /  6.4 km/h 83 % 0 in /  0.0 mm
12:02 26.8 °F /  -2.9 °C 22.3 °F /  -5.4 °C 30.4 in /  1029.3 hPa Calm   4 mph /  6.4 km/h 83 % 0 in /  0.0 mm
12:07 27.1 °F /  -2.7 °C 22.6 °F /  -5.2 °C 30.4 in /  1029.3 hPa Calm   5 mph /  8.0 km/h 83 % 0 in /  0.0 mm
12:12 27.5 °F /  -2.5 °C 23.4 °F /  -4.8 °C 30.4 in /  1029.3 hPa Calm   4 mph /  6.4 km/h 84 % 0 in /  0.0 mm
12:17 27.9 °F /  -2.3 °C 23.4 °F /  -4.8 °C 30.4 in /  1029.0 hPa East 3 mph /  4.8 km/h 4 mph /  6.4 km/h 83 % 0 in /  0.0 mm
12:22 27.5 °F /  -2.5 °C 22.8 °F /  -5.1 °C 30.4 in /  1029.0 hPa South 2 mph /  3.2 km/h 3 mph /  4.8 km/h 82 % 0 in /  0.0 mm
12:27 27.9 °F /  -2.3 °C 23.4 °F /  -4.8 °C 30.4 in /  1029.0 hPa East 1 mph /  1.6 km/h 3 mph /  4.8 km/h 83 % 0 in /  0.0 mm
12:32 28 °F /  -2.2 °C 23.2 °F /  -4.9 °C 30.4 in /  1029.0 hPa SE 1 mph /  1.6 km/h 4 mph /  6.4 km/h 82 % 0 in /  0.0 mm
12:37 28.2 °F /  -2.1 °C 23.7 °F /  -4.6 °C 30.4 in /  1029.0 hPa Calm   4 mph /  6.4 km/h 83 % 0 in /  0.0 mm
12:42 28.6 °F /  -1.9 °C 23.7 °F /  -4.6 °C 30.4 in /  1029.0 hPa Calm   4 mph /  6.4 km/h 82 % 0 in /  0.0 mm
12:47 28.6 °F /  -1.9 °C 23.5 °F /  -4.7 °C 30.4 in /  1028.7 hPa ENE 1 mph /  1.6 km/h 3 mph /  4.8 km/h 81 % 0 in /  0.0 mm
12:52 29.1 °F /  -1.6 °C 24.3 °F /  -4.3 °C 30.4 in /  1029.0 hPa ESE 1 mph /  1.6 km/h 3 mph /  4.8 km/h 82 % 0 in /  0.0 mm
12:57 29.3 °F /  -1.5 °C 23.9 °F /  -4.5 °C 30.4 in /  1028.7 hPa Calm   3 mph /  4.8 km/h 80 % 0 in /  0.0 mm
13:02 29.1 °F /  -1.6 °C 24.3 °F /  -4.3 °C 30.4 in /  1028.7 hPa Calm   3 mph /  4.8 km/h 82 % 0 in /  0.0 mm
13:12 29.7 °F /  -1.3 °C 24.3 °F /  -4.3 °C 30.4 in /  1028.7 hPa NE 2 mph /  3.2 km/h 3 mph /  4.8 km/h 80 % 0 in /  0.0 mm
13:17 30 °F /  -1.1 °C 25 °F /  -3.9 °C 30.4 in /  1028.7 hPa East 3 mph /  4.8 km/h 3 mph /  4.8 km/h 81 % 0 in /  0.0 mm
13:22 30 °F /  -1.1 °C 24.3 °F /  -4.3 °C 30.4 in /  1028.7 hPa ENE 1 mph /  1.6 km/h 4 mph /  6.4 km/h 79 % 0 in /  0.0 mm
13:32 30.6 °F /  -0.8 °C 24.8 °F /  -4.0 °C 30.4 in /  1028.7 hPa NE 3 mph /  4.8 km/h 4 mph /  6.4 km/h 79 % 0 in /  0.0 mm
13:37 30.7 °F /  -0.7 °C 25.3 °F /  -3.7 °C 30.4 in /  1028.7 hPa Calm   5 mph /  8.0 km/h 80 % 0 in /  0.0 mm
13:42 30.7 °F /  -0.7 °C 25 °F /  -3.9 °C 30.4 in /  1028.7 hPa NE 3 mph /  4.8 km/h 5 mph /  8.0 km/h 79 % 0 in /  0.0 mm
13:47 30.6 °F /  -0.8 °C 24.8 °F /  -4.0 °C 30.4 in /  1028.7 hPa NNE 3 mph /  4.8 km/h 5 mph /  8.0 km/h 79 % 0 in /  0.0 mm
13:52 30.9 °F /  -0.6 °C 25.5 °F /  -3.6 °C 30.4 in /  1028.7 hPa NE 3 mph /  4.8 km/h 4 mph /  6.4 km/h 80 % 0 in /  0.0 mm
13:57 30.9 °F /  -0.6 °C 25.2 °F /  -3.8 °C 30.4 in /  1028.7 hPa East 1 mph /  1.6 km/h 5 mph /  8.0 km/h 79 % 0 in /  0.0 mm
14:02 31.3 °F /  -0.4 °C 25.2 °F /  -3.8 °C 30.4 in /  1028.7 hPa East 2 mph /  3.2 km/h 5 mph /  8.0 km/h 78 % 0 in /  0.0 mm
14:07 31.3 °F /  -0.4 °C 25.2 °F /  -3.8 °C 30.4 in /  1028.3 hPa NE 4 mph /  6.4 km/h 5 mph /  8.0 km/h 78 % 0 in /  0.0 mm
14:12 31.5 °F /  -0.3 °C 25.7 °F /  -3.5 °C 30.4 in /  1028.3 hPa NNE 1 mph /  1.6 km/h 5 mph /  8.0 km/h 79 % 0 in /  0.0 mm
14:17 31.6 °F /  -0.2 °C 25.5 °F /  -3.6 °C 30.4 in /  1028.3 hPa Calm   5 mph /  8.0 km/h 78 % 0 in /  0.0 mm
14:27 32.2 °F /  0.1 °C 26.4 °F /  -3.1 °C 30.4 in /  1028.3 hPa NNE 1 mph /  1.6 km/h 5 mph /  8.0 km/h 79 % 0 in /  0.0 mm
14:32 32.4 °F /  0.2 °C 26.2 °F /  -3.2 °C 30.4 in /  1028.3 hPa NNE 1 mph /  1.6 km/h 5 mph /  8.0 km/h 78 % 0 in /  0.0 mm
14:37 32.5 °F /  0.3 °C 26.1 °F /  -3.3 °C 30.4 in /  1028.3 hPa NE 2 mph /  3.2 km/h 5 mph /  8.0 km/h 77 % 0 in /  0.0 mm
14:42 32.7 °F /  0.4 °C 26.2 °F /  -3.2 °C 30.4 in /  1028.3 hPa ENE 2 mph /  3.2 km/h 4 mph /  6.4 km/h 77 % 0 in /  0.0 mm
14:47 32.9 °F /  0.5 °C 26.2 °F /  -3.2 °C 30.4 in /  1028.3 hPa East 1 mph /  1.6 km/h 4 mph /  6.4 km/h 76 % 0 in /  0.0 mm
14:52 33.1 °F /  0.6 °C 26.1 °F /  -3.3 °C 30.4 in /  1028.3 hPa NE 3 mph /  4.8 km/h 4 mph /  6.4 km/h 75 % 0 in /  0.0 mm
14:57 33.3 °F /  0.7 °C 26.6 °F /  -3.0 °C 30.4 in /  1028.3 hPa Calm   4 mph /  6.4 km/h 76 % 0 in /  0.0 mm
15:02 33.4 °F /  0.8 °C 26.4 °F /  -3.1 °C 30.4 in /  1028.3 hPa NE 1 mph /  1.6 km/h 4 mph /  6.4 km/h 75 % 0 in /  0.0 mm
15:07 33.4 °F /  0.8 °C 26.4 °F /  -3.1 °C 30.4 in /  1028.3 hPa NE 2 mph /  3.2 km/h 4 mph /  6.4 km/h 75 % 0 in /  0.0 mm
15:12 33.4 °F /  0.8 °C 26.4 °F /  -3.1 °C 30.4 in /  1028.3 hPa NNE 1 mph /  1.6 km/h 4 mph /  6.4 km/h 75 % 0 in /  0.0 mm
15:17 33.8 °F /  1.0 °C 26.8 °F /  -2.9 °C 30.4 in /  1028.3 hPa ENE 1 mph /  1.6 km/h 4 mph /  6.4 km/h 75 % 0 in /  0.0 mm
15:22 34 °F /  1.1 °C 27 °F /  -2.8 °C 30.4 in /  1028.3 hPa ENE 2 mph /  3.2 km/h 4 mph /  6.4 km/h 75 % 0 in /  0.0 mm
15:27 34.2 °F /  1.2 °C 26.8 °F /  -2.9 °C 30.4 in /  1028.3 hPa Calm   3 mph /  4.8 km/h 74 % 0 in /  0.0 mm
15:32 34.3 °F /  1.3 °C 26.6 °F /  -3.0 °C 30.4 in /  1028.3 hPa Calm   3 mph /  4.8 km/h 73 % 0 in /  0.0 mm
15:37 34.5 °F /  1.4 °C 26.8 °F /  -2.9 °C 30.4 in /  1028.3 hPa Calm   3 mph /  4.8 km/h 73 % 0 in /  0.0 mm
15:42 34.9 °F /  1.6 °C 27.1 °F /  -2.7 °C 30.4 in /  1028.3 hPa Calm   3 mph /  4.8 km/h 73 % 0 in /  0.0 mm
15:47 35.2 °F /  1.8 °C 27.5 °F /  -2.5 °C 30.4 in /  1028.3 hPa Calm   1 mph /  1.6 km/h 73 % 0 in /  0.0 mm
15:52 35.4 °F /  1.9 °C 27.3 °F /  -2.6 °C 30.4 in /  1028.3 hPa NE 1 mph /  1.6 km/h 2 mph /  3.2 km/h 72 % 0 in /  0.0 mm
15:57 35.2 °F /  1.8 °C 27.5 °F /  -2.5 °C 30.4 in /  1028.0 hPa Calm   2 mph /  3.2 km/h 73 % 0 in /  0.0 mm
16:02 34.9 °F /  1.6 °C 26.8 °F /  -2.9 °C 30.4 in /  1028.0 hPa NNE 1 mph /  1.6 km/h 2 mph /  3.2 km/h 72 % 0 in /  0.0 mm
16:07 34.9 °F /  1.6 °C 27.1 °F /  -2.7 °C 30.4 in /  1028.0 hPa Calm   2 mph /  3.2 km/h 73 % 0 in /  0.0 mm
16:12 35.2 °F /  1.8 °C 27.5 °F /  -2.5 °C 30.4 in /  1028.0 hPa Calm   3 mph /  4.8 km/h 73 % 0 in /  0.0 mm
16:37 35.6 °F /  2.0 °C 27.5 °F /  -2.5 °C 30.4 in /  1028.0 hPa Calm   1 mph /  1.6 km/h 72 % 0 in /  0.0 mm
16:42 35.6 °F /  2.0 °C 27.1 °F /  -2.7 °C 30.4 in /  1028.0 hPa Calm     71 % 0 in /  0.0 mm
16:47 35.1 °F /  1.7 °C 27.3 °F /  -2.6 °C 30.4 in /  1028.0 hPa Calm     73 % 0 in /  0.0 mm
16:52 34.9 °F /  1.6 °C 27.5 °F /  -2.5 °C 30.4 in /  1028.0 hPa Calm     74 % 0 in /  0.0 mm
16:57 34.5 °F /  1.4 °C 27.1 °F /  -2.7 °C 30.4 in /  1028.3 hPa NE 2 mph /  3.2 km/h 2 mph /  3.2 km/h 74 % 0 in /  0.0 mm
17:02 34.2 °F /  1.2 °C 26.8 °F /  -2.9 °C 30.4 in /  1028.3 hPa NE 1 mph /  1.6 km/h 2 mph /  3.2 km/h 74 % 0 in /  0.0 mm
17:07 34 °F /  1.1 °C 27 °F /  -2.8 °C 30.4 in /  1028.3 hPa NE 1 mph /  1.6 km/h 2 mph /  3.2 km/h 75 % 0 in /  0.0 mm
17:12 33.6 °F /  0.9 °C 27.1 °F /  -2.7 °C 30.4 in /  1028.3 hPa Calm   2 mph /  3.2 km/h 77 % 0 in /  0.0 mm
17:17 33.4 °F /  0.8 °C 27 °F /  -2.8 °C 30.4 in /  1028.3 hPa NE 1 mph /  1.6 km/h 2 mph /  3.2 km/h 77 % 0 in /  0.0 mm
17:22 33.1 °F /  0.6 °C 27 °F /  -2.8 °C 30.4 in /  1028.3 hPa NE 2 mph /  3.2 km/h 3 mph /  4.8 km/h 78 % 0 in /  0.0 mm
17:27 32.7 °F /  0.4 °C 26.6 °F /  -3.0 °C 30.4 in /  1028.3 hPa NE 2 mph /  3.2 km/h 3 mph /  4.8 km/h 78 % 0 in /  0.0 mm
17:32 32.5 °F /  0.3 °C 26.8 °F /  -2.9 °C 30.4 in /  1028.3 hPa NNE 2 mph /  3.2 km/h 3 mph /  4.8 km/h 79 % 0 in /  0.0 mm
17:42 32.4 °F /  0.2 °C 26.6 °F /  -3.0 °C 30.4 in /  1028.3 hPa NE 2 mph /  3.2 km/h 3 mph /  4.8 km/h 79 % 0 in /  0.0 mm
17:47 32.2 °F /  0.1 °C 26.4 °F /  -3.1 °C 30.4 in /  1028.3 hPa Calm   3 mph /  4.8 km/h 79 % 0 in /  0.0 mm
17:52 31.6 °F /  -0.2 °C 26.4 °F /  -3.1 °C 30.4 in /  1028.3 hPa Calm   3 mph /  4.8 km/h 81 % 0 in /  0.0 mm
17:57 31.1 °F /  -0.5 °C 26.2 °F /  -3.2 °C 30.4 in /  1028.3 hPa Calm   2 mph /  3.2 km/h 82 % 0 in /  0.0 mm
18:02 30.7 °F /  -0.7 °C 26.2 °F /  -3.2 °C 30.4 in /  1028.3 hPa NNE 3 mph /  4.8 km/h 3 mph /  4.8 km/h 83 % 0 in /  0.0 mm
18:07 30.9 °F /  -0.6 °C 26.1 °F /  -3.3 °C 30.4 in /  1028.3 hPa NE 3 mph /  4.8 km/h 4 mph /  6.4 km/h 82 % 0 in /  0.0 mm
18:12 31.1 °F /  -0.5 °C 26.2 °F /  -3.2 °C 30.4 in /  1028.3 hPa NE 3 mph /  4.8 km/h 4 mph /  6.4 km/h 82 % 0 in /  0.0 mm
18:17 30.9 °F /  -0.6 °C 26.1 °F /  -3.3 °C 30.4 in /  1028.3 hPa NE 3 mph /  4.8 km/h 4 mph /  6.4 km/h 82 % 0 in /  0.0 mm
18:22 30.7 °F /  -0.7 °C 26.2 °F /  -3.2 °C 30.4 in /  1028.3 hPa NNE 2 mph /  3.2 km/h 5 mph /  8.0 km/h 83 % 0 in /  0.0 mm
18:27 30.6 °F /  -0.8 °C 26.2 °F /  -3.2 °C 30.4 in /  1028.3 hPa NNE 2 mph /  3.2 km/h 5 mph /  8.0 km/h 84 % 0 in /  0.0 mm
18:32 30.6 °F /  -0.8 °C 26.1 °F /  -3.3 °C 30.4 in /  1028.3 hPa NNE 1 mph /  1.6 km/h 4 mph /  6.4 km/h 83 % 0 in /  0.0 mm
18:37 30.4 °F /  -0.9 °C 25.9 °F /  -3.4 °C 30.4 in /  1028.3 hPa NE 1 mph /  1.6 km/h 4 mph /  6.4 km/h 83 % 0 in /  0.0 mm
18:42 30 °F /  -1.1 °C 25.7 °F /  -3.5 °C 30.4 in /  1028.3 hPa NNE 2 mph /  3.2 km/h 7 mph /  11.3 km/h 84 % 0 in /  0.0 mm
18:47 29.8 °F /  -1.2 °C 25.5 °F /  -3.6 °C 30.4 in /  1028.3 hPa NNE 1 mph /  1.6 km/h 4 mph /  6.4 km/h 84 % 0 in /  0.0 mm
18:52 29.7 °F /  -1.3 °C 25.7 °F /  -3.5 °C 30.4 in /  1028.3 hPa NNE 2 mph /  3.2 km/h 4 mph /  6.4 km/h 85 % 0 in /  0.0 mm
18:57 29.1 °F /  -1.6 °C 25.2 °F /  -3.8 °C 30.4 in /  1028.3 hPa North 1 mph /  1.6 km/h 3 mph /  4.8 km/h 85 % 0 in /  0.0 mm
19:02 28.9 °F /  -1.7 °C 25.3 °F /  -3.7 °C 30.4 in /  1028.3 hPa NNE 2 mph /  3.2 km/h 3 mph /  4.8 km/h 86 % 0 in /  0.0 mm
19:12 28.9 °F /  -1.7 °C 25.3 °F /  -3.7 °C 30.4 in /  1028.3 hPa NNE 2 mph /  3.2 km/h 4 mph /  6.4 km/h 86 % 0 in /  0.0 mm
19:17 28.8 °F /  -1.8 °C 25.2 °F /  -3.8 °C 30.4 in /  1028.3 hPa NE 1 mph /  1.6 km/h 4 mph /  6.4 km/h 86 % 0 in /  0.0 mm
19:22 28.8 °F /  -1.8 °C 25.2 °F /  -3.8 °C 30.4 in /  1028.3 hPa NE 1 mph /  1.6 km/h 4 mph /  6.4 km/h 86 % 0 in /  0.0 mm
19:27 28.6 °F /  -1.9 °C 25 °F /  -3.9 °C 30.4 in /  1028.3 hPa NNE 1 mph /  1.6 km/h 4 mph /  6.4 km/h 86 % 0 in /  0.0 mm
19:32 28.8 °F /  -1.8 °C 25.2 °F /  -3.8 °C 30.4 in /  1028.3 hPa NE 2 mph /  3.2 km/h 4 mph /  6.4 km/h 86 % 0 in /  0.0 mm
19:37 28.8 °F /  -1.8 °C 25.2 °F /  -3.8 °C 30.4 in /  1028.3 hPa North 1 mph /  1.6 km/h 4 mph /  6.4 km/h 86 % 0 in /  0.0 mm
19:42 28.6 °F /  -1.9 °C 25 °F /  -3.9 °C 30.4 in /  1028.3 hPa Calm   4 mph /  6.4 km/h 86 % 0 in /  0.0 mm
19:47 28.2 °F /  -2.1 °C 24.6 °F /  -4.1 °C 30.4 in /  1028.3 hPa NNE 1 mph /  1.6 km/h 3 mph /  4.8 km/h 86 % 0 in /  0.0 mm
19:52 28.2 °F /  -2.1 °C 24.6 °F /  -4.1 °C 30.4 in /  1028.3 hPa North 2 mph /  3.2 km/h 3 mph /  4.8 km/h 86 % 0 in /  0.0 mm
19:57 28 °F /  -2.2 °C 24.4 °F /  -4.2 °C 30.4 in /  1028.3 hPa NNE 1 mph /  1.6 km/h 3 mph /  4.8 km/h 86 % 0 in /  0.0 mm
20:02 27.9 °F /  -2.3 °C 24.3 °F /  -4.3 °C 30.4 in /  1028.3 hPa NNW 1 mph /  1.6 km/h 3 mph /  4.8 km/h 86 % 0 in /  0.0 mm
20:07 27.9 °F /  -2.3 °C 24.4 °F /  -4.2 °C 30.4 in /  1028.3 hPa Calm   2 mph /  3.2 km/h 87 % 0 in /  0.0 mm
20:12 27.7 °F /  -2.4 °C 24.3 °F /  -4.3 °C 30.4 in /  1028.3 hPa Calm   2 mph /  3.2 km/h 87 % 0 in /  0.0 mm
20:17 27.5 °F /  -2.5 °C 24.1 °F /  -4.4 °C 30.4 in /  1028.3 hPa Calm   1 mph /  1.6 km/h 87 % 0 in /  0.0 mm
20:22 27 °F /  -2.8 °C 23.5 °F /  -4.7 °C 30.4 in /  1028.3 hPa Calm   1 mph /  1.6 km/h 87 % 0 in /  0.0 mm
20:32 27.1 °F /  -2.7 °C 24.1 °F /  -4.4 °C 30.4 in /  1028.3 hPa Calm   1 mph /  1.6 km/h 88 % 0 in /  0.0 mm
20:37 27.1 °F /  -2.7 °C 23.7 °F /  -4.6 °C 30.4 in /  1028.3 hPa Calm   1 mph /  1.6 km/h 87 % 0 in /  0.0 mm
20:42 27.1 °F /  -2.7 °C 23.7 °F /  -4.6 °C 30.4 in /  1028.3 hPa NNW 1 mph /  1.6 km/h 1 mph /  1.6 km/h 87 % 0 in /  0.0 mm
20:47 27.1 °F /  -2.7 °C 23.7 °F /  -4.6 °C 30.4 in /  1028.3 hPa NNW 1 mph /  1.6 km/h 1 mph /  1.6 km/h 87 % 0 in /  0.0 mm
20:52 27 °F /  -2.8 °C 23.5 °F /  -4.7 °C 30.4 in /  1028.3 hPa Calm   1 mph /  1.6 km/h 87 % 0 in /  0.0 mm
20:57 27 °F /  -2.8 °C 23.5 °F /  -4.7 °C 30.4 in /  1028.3 hPa Calm   1 mph /  1.6 km/h 87 % 0 in /  0.0 mm
21:02 26.8 °F /  -2.9 °C 23.4 °F /  -4.8 °C 30.4 in /  1028.3 hPa Calm   1 mph /  1.6 km/h 87 % 0 in /  0.0 mm
21:07 26.8 °F /  -2.9 °C 23.7 °F /  -4.6 °C 30.4 in /  1028.3 hPa Calm   1 mph /  1.6 km/h 88 % 0 in /  0.0 mm
21:12 26.4 °F /  -3.1 °C 23.4 °F /  -4.8 °C 30.4 in /  1028.3 hPa Calm     88 % 0 in /  0.0 mm
21:17 26.1 °F /  -3.3 °C 23 °F /  -5.0 °C 30.4 in /  1028.3 hPa Calm     88 % 0 in /  0.0 mm
21:22 25.9 °F /  -3.4 °C 23 °F /  -5.0 °C 30.4 in /  1028.3 hPa Calm     89 % 0 in /  0.0 mm
21:27 25.3 °F /  -3.7 °C 22.6 °F /  -5.2 °C 30.4 in /  1028.3 hPa Calm     89 % 0 in /  0.0 mm
21:32 25.5 °F /  -3.6 °C 23.2 °F /  -4.9 °C 30.4 in /  1028.3 hPa Calm     91 % 0 in /  0.0 mm
21:37 26.2 °F /  -3.2 °C 23.7 °F /  -4.6 °C 30.4 in /  1028.3 hPa Calm     90 % 0 in /  0.0 mm
21:42 26.2 °F /  -3.2 °C 23.4 °F /  -4.8 °C 30.4 in /  1028.3 hPa Calm     89 % 0 in /  0.0 mm
21:47 25.9 °F /  -3.4 °C 22.8 °F /  -5.1 °C 30.4 in /  1028.3 hPa Calm     88 % 0 in /  0.0 mm
21:52 25.5 °F /  -3.6 °C 22.8 °F /  -5.1 °C 30.4 in /  1028.3 hPa Calm     89 % 0 in /  0.0 mm
21:57 25.3 °F /  -3.7 °C 22.6 °F /  -5.2 °C 30.4 in /  1028.3 hPa Calm     89 % 0 in /  0.0 mm
22:02 25.2 °F /  -3.8 °C 22.5 °F /  -5.3 °C 30.4 in /  1028.3 hPa Calm     89 % 0 in /  0.0 mm
22:07 25.2 °F /  -3.8 °C 22.6 °F /  -5.2 °C 30.4 in /  1028.3 hPa Calm     90 % 0 in /  0.0 mm
22:12 25.3 °F /  -3.7 °C 22.8 °F /  -5.1 °C 30.4 in /  1028.3 hPa Calm   1 mph /  1.6 km/h 90 % 0 in /  0.0 mm
22:17 25.3 °F /  -3.7 °C 22.8 °F /  -5.1 °C 30.4 in /  1028.3 hPa Calm   1 mph /  1.6 km/h 90 % 0 in /  0.0 mm
22:22 25 °F /  -3.9 °C 22.3 °F /  -5.4 °C 30.4 in /  1028.3 hPa Calm   1 mph /  1.6 km/h 89 % 0 in /  0.0 mm
22:27 24.6 °F /  -4.1 °C 22.1 °F /  -5.5 °C 30.4 in /  1028.3 hPa Calm   1 mph /  1.6 km/h 90 % 0 in /  0.0 mm
22:32 25 °F /  -3.9 °C 22.5 °F /  -5.3 °C 30.4 in /  1028.0 hPa Calm   1 mph /  1.6 km/h 90 % 0 in /  0.0 mm
22:37 25.2 °F /  -3.8 °C 22.6 °F /  -5.2 °C 30.4 in /  1028.3 hPa Calm   1 mph /  1.6 km/h 90 % 0 in /  0.0 mm
22:42 25.3 °F /  -3.7 °C 22.8 °F /  -5.1 °C 30.4 in /  1028.0 hPa NNW 1 mph /  1.6 km/h 1 mph /  1.6 km/h 90 % 0 in /  0.0 mm
22:47 25.3 °F /  -3.7 °C 22.8 °F /  -5.1 °C 30.4 in /  1028.0 hPa Calm   2 mph /  3.2 km/h 90 % 0 in /  0.0 mm
22:52 25.2 °F /  -3.8 °C 22.5 °F /  -5.3 °C 30.4 in /  1028.0 hPa NW 1 mph /  1.6 km/h 2 mph /  3.2 km/h 89 % 0 in /  0.0 mm
23:02 25.2 °F /  -3.8 °C 22.5 °F /  -5.3 °C 30.4 in /  1028.0 hPa Calm   2 mph /  3.2 km/h 89 % 0 in /  0.0 mm
23:07 24.3 °F /  -4.3 °C 21.6 °F /  -5.8 °C 30.4 in /  1028.0 hPa Calm   1 mph /  1.6 km/h 89 % 0 in /  0.0 mm
23:12 23.7 °F /  -4.6 °C 21.6 °F /  -5.8 °C 30.4 in /  1028.0 hPa Calm   1 mph /  1.6 km/h 91 % 0 in /  0.0 mm
23:17 23.9 °F /  -4.5 °C 21.9 °F /  -5.6 °C 30.4 in /  1028.3 hPa Calm   1 mph /  1.6 km/h 92 % 0 in /  0.0 mm
23:22 23.7 °F /  -4.6 °C 21.6 °F /  -5.8 °C 30.4 in /  1028.3 hPa WNW 1 mph /  1.6 km/h 1 mph /  1.6 km/h 91 % 0 in /  0.0 mm
23:27 23.9 °F /  -4.5 °C 21.9 °F /  -5.6 °C 30.4 in /  1028.0 hPa WNW 1 mph /  1.6 km/h 1 mph /  1.6 km/h 92 % 0 in /  0.0 mm
23:32 24.4 °F /  -4.2 °C 22.6 °F /  -5.2 °C 30.4 in /  1028.3 hPa Calm   1 mph /  1.6 km/h 93 % 0 in /  0.0 mm
23:37 24.8 °F /  -4.0 °C 22.5 °F /  -5.3 °C 30.4 in /  1028.3 hPa Calm   1 mph /  1.6 km/h 91 % 0 in /  0.0 mm
23:42 23.5 °F /  -4.7 °C 21 °F /  -6.1 °C 30.4 in /  1028.3 hPa Calm   1 mph /  1.6 km/h 90 % 0 in /  0.0 mm
23:47 23.2 °F /  -4.9 °C 21.2 °F /  -6.0 °C 30.4 in /  1028.3 hPa WNW 1 mph /  1.6 km/h   92 % 0 in /  0.0 mm
23:52 23.2 °F /  -4.9 °C 21 °F /  -6.1 °C 30.4 in /  1028.3 hPa Calm   2 mph /  3.2 km/h 91 % 0 in /  0.0 mm
23:57 23.5 °F /  -4.7 °C 21.7 °F /  -5.7 °C 30.4 in /  1028.3 hPa Calm   2 mph /  3.2 km/h 93 % 0 in /  0.0 mm
Meteo18
Compliments of Weather Underground - 4 mb

Script developed by  Jim McMurry - jmcmurry@mwt.net Adapted for the template by  Wim van der Kuil - Leuven-Template.eu

You find our weather info also at:

European Weather Network

Weather Underground

Equipment we use:

Weather-station
Davis Vue

Weather-program
Meteohub

Weather-server
Raspberry PI 2 B+

Provider
1 and 1

Davis Vue

Meteohub

Raspberry PI 2 B+

1 and 1